Time;durP1;ratioP1;P1;durP2;ratioP2;P2;SDS_P1;SDS_P2;PMS_P1;PMS_P2;Temp;Humidity;BMP_temperature;BMP_pressure;BME280_temperature;BME280_humidity;BME280_pressure;Samples;Min_cycle;Max_cycle;Signal;HPM_P1;HPM_P2
2022/05/23 00:02:23;;;;;;;3.50;2.20;;;26.00;52.00;;;;;;5131261;27;20508;-85
2022/05/23 00:04:49;;;;;;;2.10;1.90;;;26.00;52.10;;;;;;5118675;28;20178;-85
2022/05/23 00:07:34;;;;;;;2.70;2.10;;;26.00;52.00;;;;;;5132746;27;20193;-85
2022/05/23 00:10:01;;;;;;;2.43;1.93;;;26.00;52.00;;;;;;5100639;28;20186;-85
2022/05/23 00:12:27;;;;;;;2.53;2.30;;;26.00;52.00;;;;;;5119441;28;20879;-86
2022/05/23 00:14:53;;;;;;;2.63;2.03;;;26.00;52.00;;;;;;5105140;28;20408;-86
2022/05/23 00:17:20;;;;;;;2.50;2.30;;;25.90;51.90;;;;;;5118860;28;20423;-86
2022/05/23 00:19:47;;;;;;;2.17;1.90;;;26.00;51.90;;;;;;5108772;28;20425;-86
2022/05/23 00:22:14;;;;;;;2.63;2.43;;;26.00;52.00;;;;;;5098947;28;20423;-86
2022/05/23 00:24:44;;;;;;;2.60;2.37;;;26.00;51.90;;;;;;5126903;28;20415;-86
2022/05/23 00:27:16;;;;;;;2.20;1.90;;;26.00;51.90;;;;;;5092036;28;20424;-85
2022/05/23 00:29:43;;;;;;;2.07;1.93;;;25.90;51.90;;;;;;5125827;28;20446;-85
2022/05/23 00:37:38;;;;;;;2.40;2.20;;;26.00;52.50;;;;;;5121825;28;20417;-85
2022/05/23 00:40:47;;;;;;;2.57;2.37;;;25.90;51.90;;;;;;5093119;28;20428;-85
2022/05/23 00:43:24;;;;;;;2.80;2.20;;;25.90;51.80;;;;;;5108800;28;20399;-85
2022/05/23 00:46:01;;;;;;;3.10;2.80;;;25.90;51.90;;;;;;5108190;28;20490;-85
2022/05/23 00:48:28;;;;;;;2.47;2.27;;;25.90;51.90;;;;;;5114083;28;20526;-86
2022/05/23 00:51:00;;;;;;;2.67;2.47;;;25.90;51.80;;;;;;5109802;28;20441;-85
2022/05/23 00:53:50;;;;;;;2.40;2.20;;;25.90;51.80;;;;;;5093870;28;20450;-86
2022/05/23 00:56:18;;;;;;;2.50;2.30;;;25.90;51.80;;;;;;5106077;28;20461;-85
2022/05/23 00:58:50;;;;;;;2.40;2.20;;;25.90;51.80;;;;;;5110100;28;20433;-85
2022/05/23 01:01:22;;;;;;;4.20;2.47;;;25.90;52.50;;;;;;5106334;28;20422;-86
2022/05/23 01:03:48;;;;;;;1.90;1.80;;;25.90;51.80;;;;;;5126286;28;20422;-86
2022/05/23 01:06:14;;;;;;;2.53;2.20;;;25.90;51.80;;;;;;5142888;27;20415;-85
2022/05/23 01:08:41;;;;;;;2.70;2.20;;;25.90;51.80;;;;;;5130329;28;20201;-85
2022/05/23 01:11:09;;;;;;;3.23;2.67;;;25.90;51.80;;;;;;5111516;28;20904;-85
2022/05/23 01:13:36;;;;;;;2.47;2.20;;;25.90;51.80;;;;;;5112290;28;20431;-85
2022/05/23 01:16:02;;;;;;;2.40;2.20;;;25.90;51.80;;;;;;5132426;28;20415;-85
2022/05/23 01:18:28;;;;;;;2.93;2.63;;;25.90;51.80;;;;;;5106262;28;20427;-85
2022/05/23 01:20:57;;;;;;;2.73;2.53;;;25.90;51.70;;;;;;5112597;28;20425;-85
2022/05/23 01:23:39;;;;;;;2.57;2.20;;;25.90;51.80;;;;;;5131288;28;20414;-85
2022/05/23 01:26:05;;;;;;;2.23;2.07;;;25.90;51.80;;;;;;5128699;28;20901;-85
2022/05/23 01:28:39;;;;;;;2.40;2.20;;;25.90;51.70;;;;;;5118321;28;20821;-85
2022/05/23 01:31:06;;;;;;;2.73;2.50;;;25.90;51.70;;;;;;5115402;28;20412;-85
2022/05/23 01:33:32;;;;;;;2.40;2.20;;;25.90;51.70;;;;;;5112606;28;20808;-86
2022/05/23 01:35:59;;;;;;;2.73;2.53;;;25.90;51.70;;;;;;5143423;27;20495;-85
2022/05/23 01:38:26;;;;;;;2.90;2.50;;;25.90;51.80;;;;;;5113115;28;20822;-86
2022/05/23 01:40:54;;;;;;;2.60;2.40;;;25.90;51.70;;;;;;5142655;27;20504;-85
2022/05/23 01:43:21;;;;;;;2.77;2.53;;;25.90;51.70;;;;;;5110017;28;20417;-86
2022/05/23 01:45:47;;;;;;;2.40;2.10;;;25.90;51.70;;;;;;5144516;27;20411;-86
2022/05/23 01:48:13;;;;;;;2.40;2.20;;;25.90;51.80;;;;;;5095266;28;20458;-85
2022/05/23 01:50:39;;;;;;;2.50;2.30;;;25.90;51.90;;;;;;5113057;28;20487;-86
2022/05/23 01:53:05;;;;;;;2.47;2.27;;;25.90;51.90;;;;;;5111548;28;20428;-85
2022/05/23 01:55:31;;;;;;;2.40;2.20;;;25.90;52.10;;;;;;5111915;28;20443;-86
2022/05/23 01:57:58;;;;;;;2.60;2.40;;;25.90;52.00;;;;;;5085036;28;20463;-86
2022/05/23 02:03:11;;;;;;;2.57;2.37;;;25.90;52.10;;;;;;5127143;28;20410;-86
2022/05/23 02:05:38;;;;;;;2.33;2.13;;;25.90;52.10;;;;;;5096361;28;20450;-85
2022/05/23 02:08:06;;;;;;;2.43;2.10;;;25.90;52.20;;;;;;5112425;28;20459;-85
2022/05/23 02:10:34;;;;;;;2.47;2.27;;;25.90;52.10;;;;;;5108058;28;20203;-86
2022/05/23 02:13:25;;;;;;;3.13;2.87;;;25.90;52.10;;;;;;5113240;28;20404;-86
2022/05/23 02:15:50;;;;;;;2.80;2.47;;;25.90;52.20;;;;;;5094299;28;20419;-86
2022/05/23 02:18:16;;;;;;;3.00;2.63;;;25.90;52.10;;;;;;5111943;28;20433;-86
2022/05/23 02:20:42;;;;;;;3.20;2.57;;;25.90;52.10;;;;;;5095086;28;20283;-86
2022/05/23 02:23:10;;;;;;;2.73;2.50;;;25.90;52.20;;;;;;5094286;28;20419;-86
2022/05/23 02:25:36;;;;;;;3.00;2.57;;;25.90;52.10;;;;;;5112280;28;20180;-86
2022/05/23 02:28:02;;;;;;;2.50;2.30;;;25.90;52.70;;;;;;5112920;28;20467;-86
2022/05/23 02:30:28;;;;;;;2.53;2.20;;;25.90;52.10;;;;;;5112983;28;20161;-86
2022/05/23 02:32:54;;;;;;;2.80;2.53;;;25.90;52.10;;;;;;5094664;28;20408;-86
2022/05/23 02:35:20;;;;;;;2.50;2.30;;;25.90;52.10;;;;;;5094291;28;20438;-86
2022/05/23 02:37:46;;;;;;;3.47;2.47;;;25.90;52.10;;;;;;5086707;28;20189;-86
2022/05/23 02:40:12;;;;;;;2.57;2.37;;;25.90;52.00;;;;;;5090651;28;20426;-85
2022/05/23 02:42:38;;;;;;;2.70;2.50;;;25.90;52.00;;;;;;5132159;28;20489;-85
2022/05/23 02:45:09;;;;;;;2.90;2.67;;;25.90;52.10;;;;;;5131318;28;20498;-85
2022/05/23 02:47:34;;;;;;;2.63;2.13;;;25.90;52.00;;;;;;5114345;28;20193;-85
2022/05/23 02:50:00;;;;;;;3.00;2.70;;;25.90;52.00;;;;;;5112789;28;20411;-86
2022/05/23 02:52:26;;;;;;;4.37;3.07;;;25.90;52.00;;;;;;5111508;28;20174;-86
2022/05/23 02:54:53;;;;;;;2.50;2.30;;;25.90;52.00;;;;;;5093948;28;20428;-87
2022/05/23 02:57:19;;;;;;;3.53;2.57;;;25.90;52.00;;;;;;5094301;28;20446;-86
2022/05/23 02:59:45;;;;;;;2.73;2.53;;;25.90;52.00;;;;;;5080287;28;20447;-86
2022/05/23 03:04:57;;;;;;;2.97;2.70;;;25.90;51.90;;;;;;5132802;28;20168;-86
2022/05/23 03:07:23;;;;;;;2.70;2.50;;;25.90;52.00;;;;;;5148870;27;20445;-86
2022/05/23 03:09:48;;;;;;;4.23;2.53;;;25.90;51.90;;;;;;5131282;28;20794;-86
2022/05/23 03:12:15;;;;;;;2.60;2.40;;;25.90;51.90;;;;;;5124158;28;20398;-85
2022/05/23 03:14:41;;;;;;;3.10;2.80;;;25.90;51.90;;;;;;5148347;28;20253;-86
2022/05/23 03:17:08;;;;;;;2.70;2.50;;;25.90;51.90;;;;;;5132274;28;20414;-86
2022/05/23 03:19:39;;;;;;;3.23;2.80;;;25.90;51.90;;;;;;5114258;28;20419;-86
2022/05/23 03:27:37;;;;;;;2.50;2.30;;;25.90;51.80;;;;;;5111700;28;20391;-86
2022/05/23 03:30:05;;;;;;;2.70;2.50;;;25.90;51.80;;;;;;5098515;28;20411;-86
2022/05/23 03:32:32;;;;;;;2.57;2.33;;;25.90;51.80;;;;;;5107347;28;20939;-86
2022/05/23 03:34:57;;;;;;;3.00;2.70;;;25.90;52.40;;;;;;5108610;28;20408;-86
2022/05/23 03:37:24;;;;;;;3.43;3.13;;;25.90;51.80;;;;;;5123571;28;20419;-86
2022/05/23 03:39:50;;;;;;;3.40;3.10;;;25.90;51.80;;;;;;5117556;28;20178;-86
2022/05/23 03:42:17;;;;;;;3.13;2.57;;;25.90;51.80;;;;;;5124985;28;20479;-86
2022/05/23 03:44:44;;;;;;;2.57;2.37;;;25.90;51.80;;;;;;5097535;28;20416;-86
2022/05/23 03:47:11;;;;;;;2.77;2.57;;;25.90;51.80;;;;;;5119976;28;20426;-86
2022/05/23 03:49:37;;;;;;;2.93;2.73;;;25.90;51.80;;;;;;5100086;28;20451;-86
2022/05/23 03:52:03;;;;;;;2.40;2.20;;;25.90;51.80;;;;;;5101379;28;20450;-86
2022/05/23 03:55:03;;;;;;;2.53;2.33;;;25.90;51.80;;;;;;5114108;28;20439;-86
2022/05/23 03:57:29;;;;;;;2.70;2.13;;;25.90;51.70;;;;;;5112614;28;20446;-87
2022/05/23 03:59:55;;;;;;;2.70;2.33;;;25.90;51.80;;;;;;5109015;28;20419;-86
2022/05/23 04:02:21;;;;;;;2.77;2.57;;;25.90;51.80;;;;;;5100165;28;20185;-85
2022/05/23 04:04:47;;;;;;;2.73;2.53;;;25.80;51.70;;;;;;5116559;28;20435;-86
2022/05/23 04:07:16;;;;;;;2.97;2.77;;;25.90;51.80;;;;;;5128449;28;20492;-86
2022/05/23 04:09:45;;;;;;;2.57;2.37;;;25.90;51.80;;;;;;5095172;28;20220;-86
2022/05/23 04:12:10;;;;;;;2.83;2.53;;;25.80;51.70;;;;;;5091875;28;20412;-86
2022/05/23 04:14:36;;;;;;;3.00;2.60;;;25.90;51.70;;;;;;5093629;28;20422;-86
2022/05/23 04:17:02;;;;;;;3.10;2.90;;;25.90;51.70;;;;;;5093412;28;20174;-86
2022/05/23 04:19:28;;;;;;;3.33;3.00;;;25.80;51.60;;;;;;5102753;28;20415;-86
2022/05/23 04:22:00;;;;;;;2.67;2.40;;;25.90;51.70;;;;;;5105867;28;20773;-86
2022/05/23 04:24:26;;;;;;;2.70;2.50;;;25.90;51.70;;;;;;5115894;28;20455;-86
2022/05/23 04:26:54;;;;;;;3.10;2.80;;;25.90;51.70;;;;;;5120913;28;20423;-86
2022/05/23 04:29:21;;;;;;;5.40;2.60;;;25.80;51.60;;;;;;5099102;28;20245;-86
2022/05/23 04:31:47;;;;;;;3.10;2.90;;;25.80;51.80;;;;;;5105705;28;20419;-86
2022/05/23 04:37:00;;;;;;;2.67;2.47;;;25.90;51.80;;;;;;5124320;28;20177;-86
2022/05/23 04:39:27;;;;;;;2.50;2.30;;;25.90;51.80;;;;;;5128249;28;20460;-86
2022/05/23 04:41:52;;;;;;;2.90;2.70;;;25.90;51.80;;;;;;5134580;27;20412;-86
2022/05/23 04:44:18;;;;;;;3.07;2.77;;;25.90;51.80;;;;;;5128065;28;20417;-86
2022/05/23 04:49:41;;;;;;;3.30;2.83;;;25.90;51.80;;;;;;5095689;28;20209;-86
2022/05/23 04:52:09;;;;;;;3.27;2.97;;;25.90;51.80;;;;;;5106063;28;20426;-86
2022/05/23 04:54:35;;;;;;;3.27;2.50;;;25.90;51.70;;;;;;5111965;28;20419;-86
2022/05/23 04:57:02;;;;;;;3.67;3.13;;;25.90;51.80;;;;;;5101001;28;20426;-86
2022/05/23 05:02:59;;;;;;;2.80;2.50;;;25.90;51.80;;;;;;5124916;28;20400;-85
2022/05/23 05:05:27;;;;;;;2.60;2.17;;;25.90;51.80;;;;;;5096465;28;20951;-86
2022/05/23 05:07:54;;;;;;;2.90;2.70;;;25.90;51.80;;;;;;5134039;27;20456;-86
2022/05/23 05:10:21;;;;;;;2.90;2.70;;;25.90;51.80;;;;;;5089050;28;20427;-85
2022/05/23 05:12:48;;;;;;;3.07;2.87;;;25.90;51.80;;;;;;5126754;28;20411;-87
2022/05/23 05:15:14;;;;;;;3.17;2.87;;;25.90;51.80;;;;;;5143888;27;20411;-86
2022/05/23 05:17:40;;;;;;;2.63;2.30;;;25.90;51.80;;;;;;5114011;28;20459;-90
2022/05/23 05:20:08;;;;;;;3.43;2.70;;;25.90;51.80;;;;;;5108960;28;20412;-87
2022/05/23 05:22:36;;;;;;;3.03;2.73;;;25.90;51.70;;;;;;5111515;28;20188;-87
2022/05/23 05:25:07;;;;;;;3.87;2.70;;;25.90;51.70;;;;;;5105535;28;20487;-87
2022/05/23 05:27:34;;;;;;;3.40;3.10;;;25.90;51.70;;;;;;5129137;28;20403;-86
2022/05/23 05:30:02;;;;;;;3.33;3.03;;;25.90;51.80;;;;;;5127358;28;20414;-87
2022/05/23 05:32:40;;;;;;;3.23;2.47;;;25.90;51.80;;;;;;5111270;28;20415;-86
2022/05/23 05:35:14;;;;;;;3.07;2.77;;;25.90;52.30;;;;;;5106300;28;20414;-86
2022/05/23 05:37:48;;;;;;;2.60;2.33;;;25.90;51.70;;;;;;5116893;28;20421;-86
2022/05/23 05:40:19;;;;;;;3.37;2.23;;;25.90;51.70;;;;;;5131066;27;20422;-87
2022/05/23 05:42:50;;;;;;;3.17;2.77;;;25.90;51.80;;;;;;5128639;28;20429;-86
2022/05/23 05:45:29;;;;;;;3.10;2.83;;;25.90;51.70;;;;;;5127823;27;20422;-87
2022/05/23 05:47:56;;;;;;;2.97;2.67;;;25.90;51.70;;;;;;5129889;28;20454;-87
2022/05/23 05:50:27;;;;;;;2.87;2.67;;;25.90;51.70;;;;;;5127721;27;20472;-86
2022/05/23 05:52:58;;;;;;;4.93;3.23;;;25.90;51.70;;;;;;5095630;28;21136;-86
2022/05/23 05:55:24;;;;;;;3.30;3.00;;;25.90;51.70;;;;;;5110286;28;20441;-87
2022/05/23 05:57:50;;;;;;;2.83;2.63;;;25.90;51.70;;;;;;5107394;28;20430;-86
2022/05/23 06:00:17;;;;;;;3.07;2.87;;;25.90;51.70;;;;;;5107334;28;20202;-86
2022/05/23 06:02:44;;;;;;;3.23;2.70;;;25.90;51.70;;;;;;5111697;28;20407;-86
2022/05/23 06:05:10;;;;;;;2.57;2.37;;;25.90;51.70;;;;;;5129384;28;20414;-86
2022/05/23 06:13:43;;;;;;;5.37;3.20;;;25.90;51.60;;;;;;5114362;28;20413;-86
2022/05/23 06:16:08;;;;;;;4.00;3.37;;;25.90;51.70;;;;;;5113595;28;20410;-86
2022/05/23 06:18:34;;;;;;;3.13;2.83;;;25.90;51.70;;;;;;5114696;28;20184;-86
2022/05/23 06:21:00;;;;;;;3.20;2.50;;;25.90;51.70;;;;;;5114727;27;20555;-86
2022/05/23 06:23:26;;;;;;;2.70;2.50;;;25.90;51.70;;;;;;5114467;28;20177;-86
2022/05/23 06:29:14;;;;;;;2.70;2.50;;;25.90;51.60;;;;;;5131674;27;20461;-86
2022/05/23 06:31:40;;;;;;;3.23;2.93;;;25.90;51.60;;;;;;5131935;28;20418;-85
2022/05/23 06:34:11;;;;;;;2.97;2.77;;;25.90;51.60;;;;;;5132785;27;20192;-85
2022/05/23 06:36:37;;;;;;;2.80;2.50;;;25.90;51.70;;;;;;5131749;27;20502;-86
2022/05/23 06:39:03;;;;;;;2.80;2.60;;;25.90;51.70;;;;;;5114505;27;20423;-85
2022/05/23 06:41:32;;;;;;;3.17;2.70;;;25.90;51.60;;;;;;5114184;28;20185;-85
2022/05/23 06:43:58;;;;;;;5.10;3.77;;;25.90;51.60;;;;;;5134640;27;20407;-86
2022/05/23 06:46:27;;;;;;;3.23;2.60;;;25.90;51.60;;;;;;5134884;28;20422;-85
2022/05/23 06:48:53;;;;;;;4.33;3.37;;;25.90;51.60;;;;;;5133233;27;20472;-87
2022/05/23 06:51:19;;;;;;;2.90;2.50;;;25.90;51.60;;;;;;5115931;28;20489;-87
2022/05/23 06:53:46;;;;;;;3.03;2.73;;;25.90;51.50;;;;;;5133051;27;20979;-87
2022/05/23 06:56:12;;;;;;;2.90;2.60;;;25.90;51.60;;;;;;5132130;27;20458;-86
2022/05/23 06:58:39;;;;;;;2.50;2.30;;;25.90;51.60;;;;;;5117414;28;20441;-87
2022/05/23 07:01:05;;;;;;;2.77;2.57;;;26.00;51.60;;;;;;5133697;27;20476;-86
2022/05/23 07:03:34;;;;;;;3.87;2.90;;;26.00;51.60;;;;;;5113680;28;20431;-87
2022/05/23 07:14:20;;;;;;;2.33;2.13;;;26.00;51.70;;;;;;5131413;28;20465;-83
2022/05/23 07:16:46;;;;;;;2.90;2.20;;;26.00;51.80;;;;;;5113264;28;20474;-86
2022/05/23 07:19:12;;;;;;;3.20;2.90;;;26.00;51.80;;;;;;5130343;28;20422;-87
2022/05/23 07:21:38;;;;;;;3.00;2.67;;;25.90;51.80;;;;;;5112690;28;20431;-86
2022/05/23 07:24:32;;;;;;;3.10;2.53;;;26.00;51.80;;;;;;5110649;28;20252;-86
2022/05/23 07:26:59;;;;;;;2.80;2.40;;;26.00;51.80;;;;;;5117969;28;20423;-86
2022/05/23 07:29:26;;;;;;;3.40;2.63;;;26.00;51.80;;;;;;5112917;28;20458;-86
2022/05/23 07:31:53;;;;;;;2.60;2.40;;;26.00;51.90;;;;;;5110317;28;20433;-87
2022/05/23 07:34:19;;;;;;;2.50;2.30;;;26.00;51.90;;;;;;5113922;28;20411;-85
2022/05/23 07:36:46;;;;;;;2.70;2.47;;;26.00;51.90;;;;;;5088686;28;20431;-86
2022/05/23 07:39:13;;;;;;;2.60;2.40;;;26.00;51.90;;;;;;5131194;28;20415;-86
2022/05/23 07:41:43;;;;;;;2.80;2.60;;;26.00;51.90;;;;;;5118913;28;20402;-86
2022/05/23 07:47:32;;;;;;;3.80;2.23;;;26.00;51.80;;;;;;5133033;28;20429;-86
2022/05/23 07:49:59;;;;;;;2.70;2.47;;;26.00;52.00;;;;;;5130077;28;20467;-87
2022/05/23 07:52:25;;;;;;;2.90;2.60;;;26.00;52.00;;;;;;5130787;28;20456;-86
2022/05/23 08:00:33;;;;;;;2.20;2.00;;;26.00;52.10;;;;;;5131216;28;20395;-86
2022/05/23 08:03:04;;;;;;;3.63;2.43;;;26.00;52.10;;;;;;5115464;28;20421;-86
2022/05/23 08:05:30;;;;;;;3.10;2.10;;;26.10;52.10;;;;;;5116910;28;20481;-87
2022/05/23 08:08:02;;;;;;;2.90;2.70;;;26.10;52.20;;;;;;5097814;28;21037;-87
2022/05/23 08:10:28;;;;;;;3.10;2.80;;;26.10;52.10;;;;;;5136224;27;20177;-86
2022/05/23 08:12:57;;;;;;;2.63;2.10;;;26.10;52.10;;;;;;5119732;27;20428;-86
2022/05/23 08:15:25;;;;;;;4.40;2.40;;;26.10;52.10;;;;;;5133438;28;20169;-86
2022/05/23 08:18:32;;;;;;;2.33;2.13;;;26.10;52.10;;;;;;5121657;27;20439;-87
2022/05/23 08:21:00;;;;;;;3.20;2.40;;;26.10;52.10;;;;;;5124643;27;20477;-86
2022/05/23 08:23:27;;;;;;;2.50;2.30;;;26.10;52.10;;;;;;5127265;28;20417;-86
2022/05/23 08:25:53;;;;;;;3.40;2.30;;;26.10;52.20;;;;;;5117628;28;20425;-87
2022/05/23 08:28:19;;;;;;;2.60;2.27;;;26.10;52.20;;;;;;5150741;27;20446;-86
2022/05/23 08:30:46;;;;;;;3.90;2.30;;;26.10;52.80;;;;;;5121040;28;20435;-86
2022/05/23 08:33:12;;;;;;;4.77;2.63;;;26.20;52.20;;;;;;5147363;27;20426;-86
2022/05/23 08:35:38;;;;;;;5.73;2.30;;;26.20;52.20;;;;;;5144858;27;20481;-86
2022/05/23 08:38:07;;;;;;;2.70;2.10;;;26.20;52.20;;;;;;5138596;27;20420;-87
2022/05/23 08:41:08;;;;;;;5.47;2.40;;;26.20;52.20;;;;;;5128607;28;20426;-87
2022/05/23 08:44:06;;;;;;;16.43;2.63;;;26.20;52.20;;;;;;5126992;27;20435;-87
2022/05/23 08:47:16;;;;;;;5.23;2.53;;;26.20;52.20;;;;;;5114280;28;20419;-86
2022/05/23 08:49:50;;;;;;;2.40;2.20;;;26.20;52.30;;;;;;5135032;27;20482;-87
2022/05/23 08:52:45;;;;;;;3.60;2.50;;;26.20;52.30;;;;;;5116400;27;20422;-86
2022/05/23 08:55:36;;;;;;;3.27;2.07;;;26.20;52.30;;;;;;5137414;27;20553;-88
2022/05/23 08:58:17;;;;;;;2.90;2.17;;;26.20;52.40;;;;;;5137701;27;20427;-87
2022/05/23 09:00:46;;;;;;;3.10;2.67;;;26.20;52.40;;;;;;5142794;27;20449;-87
2022/05/23 09:03:26;;;;;;;2.67;1.93;;;26.20;52.40;;;;;;5116128;28;20494;-87
2022/05/23 09:06:02;;;;;;;2.00;1.90;;;26.20;52.40;;;;;;5137816;27;20420;-88
2022/05/23 09:08:35;;;;;;;2.93;2.50;;;26.20;52.40;;;;;;5127714;28;20456;-88
2022/05/23 09:11:21;;;;;;;2.00;1.70;;;26.20;52.40;;;;;;5118730;28;20417;-87
2022/05/23 09:13:57;;;;;;;1.97;1.83;;;26.20;52.40;;;;;;5141079;27;20498;-87
2022/05/23 09:16:50;;;;;;;3.10;2.30;;;26.20;52.40;;;;;;5116385;28;20413;-86
2022/05/23 09:22:58;;;;;;;2.30;1.93;;;26.20;52.30;;;;;;5008186;28;20399;-86
2022/05/23 09:25:27;;;;;;;2.30;2.03;;;26.20;52.40;;;;;;5113683;28;20957;-85
2022/05/23 09:28:17;;;;;;;3.43;2.03;;;26.20;52.40;;;;;;5115761;28;20415;-86
2022/05/23 09:30:46;;;;;;;2.77;2.30;;;26.20;52.40;;;;;;5127991;28;20418;-86
2022/05/23 09:33:16;;;;;;;3.07;1.90;;;26.20;52.40;;;;;;5099472;28;20414;-86
2022/05/23 09:35:42;;;;;;;3.50;2.27;;;26.20;52.40;;;;;;5129203;28;20446;-86
2022/05/23 09:38:19;;;;;;;2.97;2.40;;;26.20;52.30;;;;;;5112480;27;20430;-85
2022/05/23 09:40:46;;;;;;;3.73;2.20;;;26.30;52.40;;;;;;5112467;28;20184;-85
2022/05/23 09:49:26;;;;;;;2.87;2.57;;;26.30;52.30;;;;;;5131274;27;20859;-86
2022/05/23 09:52:08;;;;;;;3.37;1.93;;;26.30;52.30;;;;;;5110459;28;20989;-86
2022/05/23 09:54:54;;;;;;;5.20;2.90;;;26.20;52.20;;;;;;5128854;28;20446;-86
2022/05/23 09:57:27;;;;;;;5.00;2.30;;;26.30;52.30;;;;;;5118355;28;20444;-86
2022/05/23 09:59:59;;;;;;;2.90;2.03;;;26.30;52.30;;;;;;5121693;28;20414;-87
2022/05/23 10:02:50;;;;;;;3.93;2.33;;;26.30;52.30;;;;;;5114229;28;20422;-86
2022/05/23 10:05:30;;;;;;;6.53;2.10;;;26.30;52.30;;;;;;5132212;28;20448;-86
2022/05/23 10:08:00;;;;;;;3.20;2.30;;;26.30;52.30;;;;;;5114151;28;20470;-86
2022/05/23 10:10:37;;;;;;;3.70;2.10;;;26.30;52.30;;;;;;5114169;28;20419;-86
2022/05/23 10:13:28;;;;;;;3.30;1.97;;;26.30;52.30;;;;;;5147631;27;20414;-86
2022/05/23 10:16:16;;;;;;;3.23;2.20;;;26.30;52.30;;;;;;5110165;28;20411;-86
2022/05/23 10:19:04;;;;;;;2.13;1.83;;;26.30;52.30;;;;;;5131518;27;20409;-87
2022/05/23 10:21:40;;;;;;;2.40;1.97;;;26.30;52.30;;;;;;5138725;27;20422;-86
2022/05/23 10:24:18;;;;;;;4.57;2.50;;;26.30;52.30;;;;;;5128130;27;20421;-86
2022/05/23 10:26:49;;;;;;;4.50;2.40;;;26.30;52.30;;;;;;5115813;28;20433;-86
2022/05/23 10:29:24;;;;;;;3.37;1.83;;;26.30;52.30;;;;;;5133033;28;20498;-86
2022/05/23 10:32:06;;;;;;;6.87;2.17;;;26.30;52.30;;;;;;5142725;27;20448;-86
2022/05/23 10:34:40;;;;;;;3.30;2.30;;;26.30;52.30;;;;;;5127791;27;20493;-86
2022/05/23 10:37:16;;;;;;;3.27;2.40;;;26.40;52.40;;;;;;5115617;28;20423;-87
2022/05/23 10:42:42;;;;;;;4.80;2.07;;;26.40;52.40;;;;;;5116429;28;20430;-86
2022/05/23 10:45:23;;;;;;;7.97;2.20;;;26.40;52.40;;;;;;5112026;28;20460;-86
2022/05/23 10:48:13;;;;;;;5.40;2.10;;;26.40;52.40;;;;;;5103398;28;20459;-85
2022/05/23 10:50:50;;;;;;;3.80;1.90;;;26.40;52.50;;;;;;5146130;27;20425;-85
2022/05/23 10:53:44;;;;;;;4.43;1.90;;;26.30;52.40;;;;;;5113422;28;20415;-85
2022/05/23 10:56:43;;;;;;;3.90;2.40;;;26.40;52.40;;;;;;5138109;27;20448;-86
2022/05/23 10:59:37;;;;;;;2.13;1.50;;;26.40;52.50;;;;;;5145635;27;20421;-86
2022/05/23 11:02:21;;;;;;;3.00;1.87;;;26.40;52.50;;;;;;5142109;27;20422;-86
2022/05/23 11:04:51;;;;;;;2.40;2.20;;;26.40;52.50;;;;;;5142527;27;20869;-86
2022/05/23 11:11:05;;;;;;;3.87;2.00;;;26.40;52.50;;;;;;5088743;28;20432;-86
2022/05/23 11:13:42;;;;;;;2.47;1.80;;;26.40;52.50;;;;;;5131538;28;20946;-86
2022/05/23 11:16:15;;;;;;;4.60;2.00;;;26.40;52.50;;;;;;5119011;28;20439;-86
2022/05/23 11:19:05;;;;;;;3.47;2.10;;;26.40;52.50;;;;;;5127331;28;20454;-86
2022/05/23 11:22:07;;;;;;;2.57;2.10;;;26.40;52.50;;;;;;5129412;28;20429;-86
2022/05/23 11:24:42;;;;;;;3.83;2.60;;;26.40;52.50;;;;;;5111201;28;20502;-87
2022/05/23 11:35:43;;;;;;;2.17;1.60;;;26.40;52.50;;;;;;5118962;28;20490;-86
2022/05/23 11:38:11;;;;;;;2.33;2.03;;;26.40;52.60;;;;;;5132223;28;20522;-88
2022/05/23 11:40:37;;;;;;;3.40;2.03;;;26.40;52.60;;;;;;5114219;28;20422;-88
2022/05/23 11:43:17;;;;;;;3.70;2.43;;;26.40;52.60;;;;;;5110497;28;20441;-89
2022/05/23 11:45:57;;;;;;;2.90;2.70;;;26.40;52.50;;;;;;5097527;28;20212;-88
2022/05/23 11:48:35;;;;;;;2.70;2.07;;;26.40;52.50;;;;;;5128964;28;20438;-89
2022/05/23 11:51:11;;;;;;;3.00;1.90;;;26.40;52.50;;;;;;5109243;28;20763;-89
2022/05/23 11:53:43;;;;;;;2.90;1.60;;;26.40;52.50;;;;;;5109719;28;20542;-89
2022/05/23 11:56:10;;;;;;;3.10;2.00;;;26.40;52.50;;;;;;5110851;28;20439;-88
2022/05/23 12:02:07;;;;;;;4.50;1.90;;;26.40;52.50;;;;;;5126858;28;20394;-89
2022/05/23 12:07:56;;;;;;;2.53;1.70;;;26.40;52.50;;;;;;5122550;28;20408;-87
2022/05/23 12:10:22;;;;;;;3.50;1.90;;;26.40;52.50;;;;;;5100655;28;20419;-88
2022/05/23 12:12:50;;;;;;;4.20;1.70;;;26.40;52.50;;;;;;5131781;27;20430;-87
2022/05/23 12:15:52;;;;;;;2.87;2.20;;;26.40;52.50;;;;;;5116396;28;20212;-87
2022/05/23 12:18:21;;;;;;;2.17;1.57;;;26.40;52.50;;;;;;5134040;28;20403;-87
2022/05/23 12:20:56;;;;;;;3.17;1.87;;;26.40;52.50;;;;;;5115985;28;20435;-87
2022/05/23 12:24:19;;;;;;;2.00;1.57;;;26.40;52.60;;;;;;5115615;28;20426;-87
2022/05/23 12:26:52;;;;;;;2.00;1.80;;;26.40;52.50;;;;;;5034590;28;20498;-87
2022/05/23 12:29:28;;;;;;;2.43;1.90;;;26.40;52.60;;;;;;5029141;28;20485;-88
2022/05/23 12:32:42;;;;;;;2.53;1.87;;;26.40;52.60;;;;;;5007553;28;20807;-87
2022/05/23 12:35:08;;;;;;;2.73;1.90;;;26.40;52.60;;;;;;5000976;28;20428;-87
2022/05/23 12:37:42;;;;;;;2.70;1.77;;;26.30;52.60;;;;;;5009251;28;20419;-88
2022/05/23 12:40:24;;;;;;;2.40;1.70;;;26.40;52.60;;;;;;4968727;28;20221;-88
2022/05/23 12:42:56;;;;;;;1.60;1.50;;;26.40;52.60;;;;;;4975316;28;20464;-87
2022/05/23 12:46:09;;;;;;;2.13;1.60;;;26.40;52.60;;;;;;4992531;28;20469;-87
2022/05/23 12:48:56;;;;;;;2.53;2.27;;;26.40;52.60;;;;;;4995902;28;20502;-88
2022/05/23 12:51:59;;;;;;;2.80;1.73;;;26.40;52.70;;;;;;4998615;28;20488;-88
2022/05/23 12:54:54;;;;;;;1.90;1.63;;;26.30;52.60;;;;;;4997275;28;20429;-87
2022/05/23 12:57:35;;;;;;;3.53;2.00;;;26.30;52.70;;;;;;5025222;28;20421;-87
2022/05/23 13:00:15;;;;;;;2.73;2.00;;;26.30;52.80;;;;;;5069797;28;20416;-87
2022/05/23 13:03:18;;;;;;;2.33;2.13;;;26.30;52.70;;;;;;5070718;28;20413;-87
2022/05/23 13:05:55;;;;;;;3.13;2.17;;;26.30;52.70;;;;;;5063538;28;20429;-87
2022/05/23 13:08:34;;;;;;;2.70;2.10;;;26.30;52.70;;;;;;5049719;28;20507;-87
2022/05/23 13:11:06;;;;;;;2.40;2.20;;;26.30;52.80;;;;;;5069213;28;20471;-87
2022/05/23 13:13:41;;;;;;;2.13;1.93;;;26.30;52.80;;;;;;5094253;28;20500;-87
2022/05/23 13:16:24;;;;;;;3.00;2.13;;;26.30;52.80;;;;;;5109679;27;20414;-87
2022/05/23 13:27:12;;;;;;;4.50;1.90;;;26.30;52.80;;;;;;5125451;28;20393;-87
2022/05/23 13:29:40;;;;;;;8.07;2.40;;;26.30;52.80;;;;;;5115326;28;20455;-87
2022/05/23 13:32:16;;;;;;;1.83;1.47;;;26.30;52.80;;;;;;5115238;28;20433;-87
2022/05/23 13:34:45;;;;;;;2.30;1.70;;;26.30;52.80;;;;;;5114829;28;20497;-87
2022/05/23 13:37:37;;;;;;;3.77;2.20;;;26.30;52.80;;;;;;5115990;28;20411;-87
2022/05/23 13:40:13;;;;;;;2.30;1.80;;;26.40;52.80;;;;;;5133489;28;20421;-87
2022/05/23 13:42:42;;;;;;;2.63;2.10;;;26.40;52.80;;;;;;5132843;28;20422;-87
2022/05/23 13:45:14;;;;;;;3.03;1.77;;;26.30;52.80;;;;;;5098440;28;20429;-86
2022/05/23 13:48:00;;;;;;;2.70;2.00;;;26.40;52.80;;;;;;5137490;27;20417;-86
2022/05/23 13:50:36;;;;;;;2.20;1.97;;;26.40;52.80;;;;;;5114723;28;20426;-86
2022/05/23 13:53:10;;;;;;;2.00;1.80;;;26.40;52.80;;;;;;5114303;28;20448;-86
2022/05/23 13:55:52;;;;;;;2.03;1.70;;;26.40;52.80;;;;;;5114443;28;20447;-86
2022/05/23 13:58:22;;;;;;;3.60;2.00;;;26.40;52.80;;;;;;5113073;28;20415;-87
2022/05/23 14:01:01;;;;;;;1.90;1.70;;;26.40;52.80;;;;;;5095171;28;20403;-85
2022/05/23 14:03:40;;;;;;;1.90;1.70;;;26.40;52.80;;;;;;5128538;28;20404;-86
2022/05/23 14:06:11;;;;;;;2.60;2.00;;;26.40;52.80;;;;;;5112962;28;20419;-86
2022/05/23 14:08:43;;;;;;;5.83;1.93;;;26.40;52.80;;;;;;5094613;28;20435;-86
2022/05/23 14:11:19;;;;;;;3.43;2.13;;;26.40;52.80;;;;;;5094964;28;20495;-86
2022/05/23 14:13:47;;;;;;;2.60;1.90;;;26.30;52.80;;;;;;5108430;28;20425;-87
2022/05/23 14:16:18;;;;;;;3.60;1.90;;;26.40;52.80;;;;;;5115379;28;20418;-87
2022/05/23 14:22:19;;;;;;;2.33;1.90;;;26.30;52.80;;;;;;5111157;28;20418;-86
2022/05/23 14:24:53;;;;;;;3.67;2.30;;;26.30;52.80;;;;;;5095258;28;20411;-86
2022/05/23 14:27:27;;;;;;;2.83;1.90;;;26.30;52.80;;;;;;5094487;28;20457;-86
2022/05/23 14:30:24;;;;;;;2.40;1.97;;;26.30;52.80;;;;;;5094178;28;20447;-86
2022/05/23 14:36:51;;;;;;;3.80;2.70;;;26.30;52.80;;;;;;5134697;27;20443;-86
2022/05/23 14:39:23;;;;;;;1.70;1.60;;;26.30;52.80;;;;;;5113713;28;20410;-86
2022/05/23 14:41:50;;;;;;;2.00;1.80;;;26.30;52.90;;;;;;5115387;28;20459;-86
2022/05/23 14:44:36;;;;;;;2.87;2.57;;;26.30;52.90;;;;;;5113691;28;20422;-86
2022/05/23 14:47:14;;;;;;;2.33;2.13;;;26.30;52.90;;;;;;5049244;28;20414;-85
2022/05/23 14:49:54;;;;;;;2.23;2.03;;;26.30;52.90;;;;;;5033143;28;20456;-86
2022/05/23 14:52:24;;;;;;;2.43;1.97;;;26.30;52.90;;;;;;5049422;28;20422;-87
2022/05/23 15:00:38;;;;;;;2.07;1.83;;;26.30;52.90;;;;;;5050323;28;20386;-87
2022/05/23 15:03:24;;;;;;;2.00;1.80;;;26.30;52.90;;;;;;5033181;28;20456;-86